createdAt,value
2022-10-28T00:01:09.052Z,21.10
2022-10-28T00:04:05.219Z,20.20
2022-10-28T00:07:01.280Z,20.70
2022-10-28T00:09:57.370Z,22.20
2022-10-28T00:12:53.445Z,21.30
2022-10-28T00:15:49.809Z,22.00
2022-10-28T00:18:45.893Z,21.20
2022-10-28T00:21:41.966Z,21.60
2022-10-28T00:24:38.042Z,23.20
2022-10-28T00:27:34.100Z,21.20
2022-10-28T00:33:27.268Z,20.70
2022-10-28T00:36:23.349Z,22.80
2022-10-28T00:39:19.441Z,20.60
2022-10-28T00:42:15.503Z,19.70
2022-10-28T00:45:11.581Z,18.70
2022-10-28T00:48:07.648Z,20.10
2022-10-28T00:51:04.748Z,19.80
2022-10-28T00:54:00.851Z,20.00
2022-10-28T00:56:56.910Z,21.80
2022-10-28T00:59:53.006Z,20.30
2022-10-28T01:02:49.117Z,18.90
2022-10-28T01:05:46.336Z,18.50
2022-10-28T01:08:42.405Z,18.60
2022-10-28T01:11:38.469Z,18.40
2022-10-28T01:14:34.573Z,18.90
2022-10-28T01:17:30.686Z,19.30
2022-10-28T01:20:26.757Z,18.10
2022-10-28T01:23:22.840Z,17.90
2022-10-28T01:26:18.934Z,18.40
2022-10-28T01:29:15.011Z,18.40
2022-10-28T01:32:11.086Z,18.80
2022-10-28T01:35:07.145Z,17.90
2022-10-28T01:38:03.201Z,19.20
2022-10-28T01:40:59.261Z,16.00
2022-10-28T01:43:55.322Z,16.50
2022-10-28T01:46:51.402Z,17.10
2022-10-28T01:49:47.471Z,16.20
2022-10-28T01:52:43.553Z,16.80
2022-10-28T01:55:39.610Z,16.30
2022-10-28T01:58:35.703Z,16.30
2022-10-28T02:01:31.886Z,16.00
2022-10-28T02:04:28.164Z,15.60
2022-10-28T02:07:24.229Z,15.30
2022-10-28T02:10:20.296Z,15.70
2022-10-28T02:13:16.368Z,15.60
2022-10-28T02:16:12.424Z,15.10
2022-10-28T02:19:08.498Z,15.70
2022-10-28T02:22:04.575Z,15.20
2022-10-28T02:25:00.645Z,14.70
2022-10-28T02:27:56.754Z,14.60
2022-10-28T02:30:52.822Z,14.80
2022-10-28T02:33:48.914Z,14.10
2022-10-28T02:36:44.990Z,13.40
2022-10-28T02:39:41.065Z,13.20
2022-10-28T02:42:37.238Z,14.30
2022-10-28T02:45:33.290Z,14.10
2022-10-28T02:48:29.376Z,13.30
2022-10-28T02:51:25.459Z,13.80
2022-10-28T02:54:21.547Z,13.90
2022-10-28T02:57:17.630Z,13.20
2022-10-28T03:00:13.691Z,13.00
2022-10-28T03:03:09.771Z,12.90
2022-10-28T03:06:05.854Z,13.70
2022-10-28T03:09:01.918Z,13.70
2022-10-28T03:11:57.974Z,13.70
2022-10-28T03:14:54.054Z,13.10
2022-10-28T03:17:50.177Z,13.70
2022-10-28T03:20:46.335Z,12.90
2022-10-28T03:23:42.441Z,12.30
2022-10-28T03:26:38.499Z,12.90
2022-10-28T03:29:34.615Z,12.90
2022-10-28T03:32:30.688Z,13.10
2022-10-28T03:35:26.767Z,12.60
2022-10-28T03:38:22.826Z,13.00
2022-10-28T03:41:18.956Z,11.30
2022-10-28T03:44:15.012Z,12.70
2022-10-28T03:47:11.094Z,12.90
2022-10-28T03:50:07.170Z,13.90
2022-10-28T03:53:03.249Z,12.90
2022-10-28T03:55:59.334Z,12.60
2022-10-28T03:58:55.455Z,12.70
2022-10-28T04:01:51.686Z,13.00
2022-10-28T04:04:47.877Z,13.50
2022-10-28T04:07:43.956Z,13.30
2022-10-28T04:10:42.620Z,12.90
2022-10-28T04:13:42.422Z,12.30
2022-10-28T04:16:38.499Z,13.60
2022-10-28T04:19:34.565Z,12.80
2022-10-28T04:22:30.663Z,13.10
2022-10-28T04:25:26.753Z,12.70
2022-10-28T04:28:23.873Z,12.60
2022-10-28T04:31:19.937Z,12.50
2022-10-28T04:34:15.994Z,11.90
2022-10-28T04:37:13.377Z,12.80
2022-10-28T04:40:11.365Z,12.20
2022-10-28T04:43:09.799Z,12.20
2022-10-28T04:46:06.499Z,12.00
2022-10-28T04:49:02.560Z,12.80
2022-10-28T04:51:58.651Z,11.50
2022-10-28T04:54:54.723Z,11.20
2022-10-28T04:57:50.800Z,10.70
2022-10-28T05:00:46.887Z,10.90
2022-10-28T05:03:42.967Z,11.40
2022-10-28T05:06:39.068Z,12.20
2022-10-28T05:09:35.142Z,11.50
2022-10-28T05:12:31.239Z,11.70
2022-10-28T05:15:27.302Z,12.40
2022-10-28T05:18:24.081Z,11.90
2022-10-28T05:21:20.379Z,11.60
2022-10-28T05:24:16.447Z,13.20
2022-10-28T05:27:13.022Z,11.80
2022-10-28T05:30:09.086Z,12.40
2022-10-28T05:33:05.203Z,12.60
2022-10-28T05:36:01.287Z,11.30
2022-10-28T05:38:57.362Z,13.20
2022-10-28T05:41:53.455Z,12.60
2022-10-28T05:44:49.518Z,11.90
2022-10-28T05:47:45.600Z,12.40
2022-10-28T05:50:41.676Z,11.90
2022-10-28T05:53:37.762Z,12.40
2022-10-28T05:56:33.839Z,12.60
2022-10-28T05:59:29.914Z,13.20
2022-10-28T06:02:25.988Z,11.10
2022-10-28T06:05:22.055Z,11.00
2022-10-28T06:08:18.123Z,11.90
2022-10-28T06:11:12.654Z,11.10
2022-10-28T06:14:08.737Z,11.20
2022-10-28T06:17:05.562Z,12.00
2022-10-28T06:20:01.633Z,12.90
2022-10-28T06:22:57.732Z,11.90
2022-10-28T06:25:55.154Z,12.60
2022-10-28T06:28:51.209Z,11.60
2022-10-28T06:31:47.321Z,12.40
2022-10-28T06:34:43.392Z,11.80
2022-10-28T06:37:40.027Z,12.40
2022-10-28T06:40:36.104Z,11.10
2022-10-28T06:43:32.171Z,11.90
2022-10-28T06:46:28.243Z,12.10
2022-10-28T06:49:27.356Z,12.00
2022-10-28T06:52:23.463Z,12.00
2022-10-28T06:55:19.546Z,11.20
2022-10-28T06:58:15.674Z,12.60
2022-10-28T07:01:12.545Z,12.80
2022-10-28T07:04:08.634Z,12.40
2022-10-28T07:07:05.130Z,12.80
2022-10-28T07:10:01.250Z,13.30
2022-10-28T07:12:57.767Z,10.60
2022-10-28T07:15:54.174Z,11.20
2022-10-28T07:18:50.742Z,11.40
2022-10-28T07:21:46.847Z,10.60
2022-10-28T07:24:43.105Z,10.40
2022-10-28T07:27:39.285Z,11.20
2022-10-28T07:30:35.788Z,11.40
2022-10-28T07:33:32.233Z,11.20
2022-10-28T07:36:28.297Z,11.20
2022-10-28T07:39:24.827Z,10.60
2022-10-28T07:42:21.150Z,11.40
2022-10-28T07:45:17.307Z,11.20
2022-10-28T07:48:13.380Z,11.40
2022-10-28T07:51:09.485Z,10.80
2022-10-28T07:54:05.596Z,10.10
2022-10-28T07:57:01.666Z,10.30
2022-10-28T07:59:57.732Z,10.60
2022-10-28T08:02:53.789Z,10.40
2022-10-28T08:05:49.861Z,11.60
2022-10-28T08:08:45.942Z,11.10
2022-10-28T08:11:41.999Z,11.00
2022-10-28T08:14:38.110Z,11.60
2022-10-28T08:17:34.178Z,10.70
2022-10-28T08:20:30.267Z,11.20
2022-10-28T08:23:26.349Z,12.00
2022-10-28T08:26:22.425Z,11.60
2022-10-28T08:29:18.494Z,11.70
2022-10-28T08:32:14.605Z,11.00
2022-10-28T08:35:10.697Z,11.70
2022-10-28T08:38:06.779Z,10.30
2022-10-28T08:41:02.865Z,11.30
2022-10-28T08:43:58.942Z,10.90
2022-10-28T08:46:55.011Z,11.10
2022-10-28T08:49:51.097Z,10.90
2022-10-28T08:52:47.154Z,9.90
2022-10-28T08:55:43.240Z,10.60
2022-10-28T08:58:39.301Z,10.60
2022-10-28T09:01:35.567Z,10.00
2022-10-28T09:04:31.864Z,10.40
2022-10-28T09:07:27.922Z,9.70
2022-10-28T09:10:24.014Z,10.70
2022-10-28T09:13:20.084Z,10.40
2022-10-28T09:16:16.384Z,10.30
2022-10-28T09:19:12.563Z,10.50
2022-10-28T09:22:08.698Z,9.30
2022-10-28T09:25:04.773Z,11.30
2022-10-28T09:28:00.835Z,10.50
2022-10-28T09:30:56.928Z,10.80
2022-10-28T09:33:52.988Z,9.50
2022-10-28T09:36:49.623Z,11.20
2022-10-28T09:39:45.693Z,10.10
2022-10-28T09:42:41.823Z,10.60
2022-10-28T09:45:37.902Z,9.70
2022-10-28T09:48:33.995Z,9.80
2022-10-28T09:51:30.079Z,9.80
2022-10-28T09:54:26.165Z,9.40
2022-10-28T09:57:22.257Z,10.10
2022-10-28T10:00:18.367Z,9.70
2022-10-28T10:03:14.478Z,10.10
2022-10-28T10:06:10.551Z,10.90
2022-10-28T10:09:06.638Z,10.40
2022-10-28T10:12:02.705Z,10.30
2022-10-28T10:14:58.823Z,11.00
2022-10-28T10:17:54.899Z,10.60
2022-10-28T10:20:50.997Z,10.50
2022-10-28T10:23:47.109Z,10.60
2022-10-28T10:26:43.186Z,10.50
2022-10-28T10:29:39.281Z,9.50
2022-10-28T10:32:35.353Z,9.30
2022-10-28T10:35:31.419Z,10.10
2022-10-28T10:38:27.757Z,10.70
2022-10-28T10:41:23.811Z,10.00
2022-10-28T10:44:19.923Z,10.20
2022-10-28T10:47:16.009Z,10.60
2022-10-28T10:50:12.105Z,10.20
2022-10-28T10:53:08.176Z,10.30
2022-10-28T10:56:04.253Z,10.60
2022-10-28T10:59:01.843Z,9.70
2022-10-28T11:01:58.029Z,9.40
2022-10-28T11:04:54.211Z,9.10
2022-10-28T11:07:50.296Z,9.30
2022-10-28T11:10:46.400Z,9.70
2022-10-28T11:13:46.056Z,9.80
2022-10-28T11:16:42.516Z,8.80
2022-10-28T11:19:39.243Z,9.20
2022-10-28T11:22:35.329Z,10.10
2022-10-28T11:25:31.427Z,10.80
2022-10-28T11:28:27.526Z,10.30
2022-10-28T11:31:23.602Z,9.90
2022-10-28T11:34:19.705Z,10.40
2022-10-28T11:37:15.777Z,9.70
2022-10-28T11:40:12.785Z,10.00
2022-10-28T11:43:08.903Z,9.80
2022-10-28T11:46:04.984Z,9.00
2022-10-28T11:49:01.396Z,9.50
2022-10-28T11:51:57.470Z,9.60
2022-10-28T11:54:53.554Z,9.50
2022-10-28T11:57:49.669Z,9.30
2022-10-28T12:00:45.756Z,9.40
2022-10-28T12:03:41.839Z,9.40
2022-10-28T12:06:37.921Z,9.50
2022-10-28T12:09:33.997Z,9.30
2022-10-28T12:12:30.091Z,9.70
2022-10-28T12:15:26.166Z,9.70
2022-10-28T12:18:22.253Z,10.20
2022-10-28T12:21:18.443Z,9.60
2022-10-28T12:24:14.697Z,10.40
2022-10-28T12:27:15.272Z,10.30
2022-10-28T12:30:14.311Z,9.80
2022-10-28T12:33:10.372Z,9.00
2022-10-28T12:36:06.443Z,9.10
2022-10-28T12:39:02.543Z,9.90
2022-10-28T12:41:58.608Z,10.30
2022-10-28T12:44:54.797Z,10.00
2022-10-28T12:47:50.976Z,9.60
2022-10-28T12:50:47.048Z,9.80
2022-10-28T12:53:43.130Z,9.70
2022-10-28T12:56:39.192Z,9.10
2022-10-28T12:59:35.269Z,8.80
2022-10-28T13:02:31.404Z,9.20
2022-10-28T13:05:27.571Z,9.40
2022-10-28T13:08:23.701Z,10.20
2022-10-28T13:11:19.776Z,10.30
2022-10-28T13:14:15.857Z,9.70
2022-10-28T13:17:11.942Z,9.20
2022-10-28T13:20:08.021Z,10.00
2022-10-28T13:23:04.357Z,9.50
2022-10-28T13:26:00.490Z,10.10
2022-10-28T13:28:56.586Z,9.80
2022-10-28T13:31:52.667Z,9.80
2022-10-28T13:34:48.893Z,10.10
2022-10-28T13:37:45.161Z,10.50
2022-10-28T13:40:41.241Z,9.40
2022-10-28T13:43:37.309Z,10.70
2022-10-28T13:46:33.396Z,9.90
2022-10-28T13:49:29.482Z,12.00
2022-10-28T13:52:25.558Z,12.20
2022-10-28T13:55:21.627Z,10.90
2022-10-28T13:58:17.707Z,10.70
2022-10-28T14:01:13.981Z,11.00
2022-10-28T14:04:10.220Z,10.40
2022-10-28T14:07:06.293Z,10.20
2022-10-28T14:10:02.397Z,10.20
2022-10-28T14:12:58.962Z,10.70
2022-10-28T14:18:52.915Z,10.30
2022-10-28T14:21:49.010Z,9.90
2022-10-28T14:24:45.322Z,10.50
2022-10-28T14:27:41.410Z,10.10
2022-10-28T14:30:37.956Z,10.20
2022-10-28T14:33:34.685Z,10.60
2022-10-28T14:36:30.761Z,11.20
2022-10-28T14:39:26.847Z,11.00
2022-10-28T14:42:22.973Z,10.90
2022-10-28T14:45:19.066Z,11.50
2022-10-28T14:48:15.142Z,11.10
2022-10-28T14:51:11.234Z,10.50
2022-10-28T14:54:07.327Z,11.10
2022-10-28T14:57:03.404Z,9.30
2022-10-28T14:59:59.488Z,10.80
2022-10-28T15:02:55.625Z,11.40
2022-10-28T15:05:51.688Z,10.60
2022-10-28T15:08:47.799Z,11.50
2022-10-28T15:11:43.940Z,12.70
2022-10-28T15:14:40.054Z,11.50
2022-10-28T15:17:36.130Z,11.20
2022-10-28T15:20:32.220Z,14.40
2022-10-28T15:23:28.289Z,12.20
2022-10-28T15:26:24.396Z,12.50
2022-10-28T15:29:20.459Z,12.90
2022-10-28T15:32:16.570Z,12.20
2022-10-28T15:35:12.689Z,13.10
2022-10-28T15:38:08.840Z,13.50
2022-10-28T15:41:04.958Z,13.80
2022-10-28T15:44:01.046Z,12.70
2022-10-28T15:46:57.856Z,11.80
2022-10-28T15:49:53.927Z,14.70
2022-10-28T15:52:51.725Z,13.90
2022-10-28T15:56:02.810Z,12.90
2022-10-28T15:59:04.209Z,13.70
2022-10-28T16:02:01.259Z,14.90
2022-10-28T16:04:57.565Z,13.80
2022-10-28T16:07:53.806Z,13.20
2022-10-28T16:10:50.141Z,12.80
2022-10-28T16:13:47.616Z,13.20
2022-10-28T16:16:43.690Z,13.80
2022-10-28T16:19:39.776Z,13.70
2022-10-28T16:22:35.855Z,13.40
2022-10-28T16:25:31.939Z,13.10
2022-10-28T16:28:28.071Z,13.90
2022-10-28T16:31:24.154Z,13.90
2022-10-28T16:34:20.225Z,14.10
2022-10-28T16:37:16.632Z,12.30
2022-10-28T16:40:30.881Z,14.70
2022-10-28T16:43:28.793Z,15.20
2022-10-28T16:46:25.226Z,15.10
2022-10-28T16:49:21.349Z,14.30
2022-10-28T16:52:17.746Z,15.90
2022-10-28T16:55:14.225Z,14.90
2022-10-28T16:58:10.695Z,14.00
2022-10-28T17:01:07.112Z,15.50
2022-10-28T17:04:03.610Z,15.00
2022-10-28T17:07:00.158Z,16.60
2022-10-28T17:09:56.627Z,16.30
2022-10-28T17:12:53.665Z,14.40
2022-10-28T17:15:50.544Z,15.70
2022-10-28T17:18:47.327Z,16.20
2022-10-28T17:21:43.888Z,16.20
2022-10-28T17:24:40.549Z,15.70
2022-10-28T17:27:37.524Z,16.40
2022-10-28T17:30:34.228Z,16.30
2022-10-28T17:33:31.810Z,17.20
2022-10-28T17:36:28.965Z,16.10
2022-10-28T17:39:26.635Z,15.20
2022-10-28T17:42:23.472Z,17.30
2022-10-28T17:45:22.025Z,16.80
2022-10-28T17:48:18.593Z,15.40
2022-10-28T17:51:16.999Z,15.60
2022-10-28T17:54:13.165Z,18.80
2022-10-28T17:57:09.355Z,17.50
2022-10-28T18:00:05.496Z,16.40
2022-10-28T18:03:03.605Z,16.20
2022-10-28T18:05:59.823Z,16.60
2022-10-28T18:08:55.910Z,15.80
2022-10-28T18:11:53.407Z,16.80
2022-10-28T18:14:50.004Z,16.70
2022-10-28T18:17:47.297Z,18.60
2022-10-28T18:20:43.740Z,17.30
2022-10-28T18:23:40.620Z,18.90
2022-10-28T18:26:37.426Z,18.10
2022-10-28T18:29:34.316Z,20.10
2022-10-28T18:32:31.197Z,21.40
2022-10-28T18:35:27.329Z,20.90
2022-10-28T18:38:28.733Z,19.90
2022-10-28T18:41:25.261Z,18.90
2022-10-28T18:44:31.094Z,18.80
2022-10-28T18:47:28.854Z,18.20
2022-10-28T18:50:25.604Z,17.60
2022-10-28T18:53:22.315Z,16.10
2022-10-28T18:56:18.756Z,16.60
2022-10-28T18:59:15.322Z,16.80
2022-10-28T19:02:13.194Z,17.60
2022-10-28T19:05:10.009Z,17.60
2022-10-28T19:08:06.263Z,16.70
2022-10-28T19:11:02.368Z,17.00
2022-10-28T19:13:58.495Z,16.20
2022-10-28T19:16:54.621Z,17.00
2022-10-28T19:19:52.197Z,17.20
2022-10-28T19:22:48.392Z,17.10
2022-10-28T19:25:44.547Z,17.70
2022-10-28T19:28:41.816Z,18.40
2022-10-28T19:31:39.077Z,19.00
2022-10-28T19:34:37.340Z,17.80
2022-10-28T19:37:34.671Z,18.50
2022-10-28T19:40:31.397Z,18.90
2022-10-28T19:43:28.185Z,18.10
2022-10-28T19:46:25.859Z,19.50
2022-10-28T19:49:25.602Z,18.70
2022-10-28T19:52:24.432Z,19.90
2022-10-28T19:55:21.018Z,19.90
2022-10-28T19:58:19.489Z,20.60
2022-10-28T20:01:17.067Z,20.20
2022-10-28T20:04:13.810Z,20.00
2022-10-28T20:07:10.771Z,19.90
2022-10-28T20:10:06.914Z,24.40
2022-10-28T20:13:03.293Z,27.40
2022-10-28T20:15:59.406Z,29.70
2022-10-28T20:18:55.527Z,24.90
2022-10-28T20:21:52.034Z,22.40
2022-10-28T20:24:48.999Z,21.00
2022-10-28T20:27:45.479Z,21.50
2022-10-28T20:30:54.133Z,19.80
2022-10-28T20:33:50.473Z,19.40
2022-10-28T20:36:48.235Z,18.00
2022-10-28T20:39:45.056Z,16.80
2022-10-28T20:42:47.554Z,16.90
2022-10-28T20:45:52.908Z,16.50
2022-10-28T20:48:54.465Z,16.20
2022-10-28T21:02:43.664Z,14.70
2022-10-28T21:05:41.436Z,15.30
2022-10-28T21:08:38.889Z,15.20
2022-10-28T21:11:36.373Z,14.70
2022-10-28T21:14:33.912Z,15.10
2022-10-28T21:17:31.414Z,14.40
2022-10-28T21:20:29.505Z,14.30
2022-10-28T21:23:26.972Z,14.20
2022-10-28T21:26:43.727Z,14.50
2022-10-28T21:29:43.599Z,16.90
2022-10-28T21:32:41.061Z,27.10
2022-10-28T21:35:38.535Z,17.10
2022-10-28T21:38:36.088Z,15.40
2022-10-28T21:41:33.532Z,16.00
2022-10-28T21:44:30.982Z,17.40
2022-10-28T21:47:28.414Z,15.90
2022-10-28T21:50:25.882Z,15.40
2022-10-28T21:53:23.333Z,14.20
2022-10-28T21:56:20.798Z,15.10
2022-10-28T21:59:18.261Z,15.50
2022-10-28T22:02:15.808Z,15.60
2022-10-28T22:05:13.454Z,16.30
2022-10-28T22:08:12.362Z,16.70
2022-10-28T22:11:09.846Z,16.10
2022-10-28T22:14:07.298Z,17.30
2022-10-28T22:17:04.739Z,17.10
2022-10-28T22:20:02.213Z,17.50
2022-10-28T22:22:59.709Z,17.50
2022-10-28T22:25:57.160Z,17.40
2022-10-28T22:28:54.616Z,17.60
2022-10-28T22:31:52.120Z,18.70
2022-10-28T22:34:49.569Z,18.50
2022-10-28T22:37:47.329Z,17.70
2022-10-28T22:40:44.832Z,17.90
2022-10-28T22:43:42.255Z,18.10
2022-10-28T22:46:40.977Z,19.00
2022-10-28T22:49:38.423Z,18.10
2022-10-28T22:52:35.867Z,18.40
2022-10-28T22:55:33.323Z,16.80
2022-10-28T22:58:30.756Z,17.60
2022-10-28T23:01:28.529Z,17.10
2022-10-28T23:04:26.222Z,16.50
2022-10-28T23:07:23.700Z,14.30
2022-10-28T23:10:21.188Z,15.50
2022-10-28T23:13:21.450Z,14.50
2022-10-28T23:16:19.050Z,15.10
2022-10-28T23:19:16.536Z,15.20
2022-10-28T23:22:14.168Z,16.10
2022-10-28T23:25:11.735Z,15.50
2022-10-28T23:28:09.231Z,13.90
2022-10-28T23:31:06.724Z,12.90
2022-10-28T23:34:04.229Z,13.90
2022-10-28T23:37:01.668Z,12.30
2022-10-28T23:39:59.125Z,13.10
2022-10-28T23:42:58.787Z,12.00
2022-10-28T23:45:56.554Z,12.80
2022-10-28T23:48:54.068Z,12.60
2022-10-28T23:51:51.537Z,11.90
2022-10-28T23:54:53.094Z,13.10
2022-10-28T23:57:51.405Z,13.30
